WetterOnline ( https://www.wetteronline.de )

Wetter aktuell Essen

Aktuelles Wetter: Essen (161m)

6-stündlich | Neueste Meldungen
Ortszeit Temperatur Wetter
So, 31.05. 14:00 18.9° C fast wolkenlos
So, 31.05. 8:00 12.2° C fast wolkenlos
So, 31.05. 2:00 13.8° C wolkenlos
Sa, 30.05. 20:00 19.1° C leicht bewölkt
Sa, 30.05. 14:00 20.8° C leicht bewölkt
Sa, 30.05. 8:00 13.1° C wolkenlos
Sa, 30.05. 2:00 13.7° C wolkenlos
Fr, 29.05. 20:00 19.7° C wolkenlos
Ortszeit Temperatur Wetter
So, 31.05. 16:00 19.5° C fast wolkenlos
So, 31.05. 15:50 19.5° C fast wolkenlos
So, 31.05. 15:40 18.4° C leicht bewölkt
So, 31.05. 15:30 18.9° C bewölkt
So, 31.05. 15:20 18.9° C bewölkt
So, 31.05. 15:10 18.6° C wolkig
So, 31.05. 15:00 18.9° C leicht bewölkt
So, 31.05. 14:30 18.0° C leicht bewölkt
So, 31.05. 14:00 18.9° C fast wolkenlos
So, 31.05. 13:30 18.1° C wolkenlos
So, 31.05. 13:00 17.8° C wolkenlos
Ortszeit Relative Feuchte Sichtweite
So, 31.05. 14:00 42% >70 km
So, 31.05. 8:00 63% >70 km
So, 31.05. 2:00 53% 65 km
Sa, 30.05. 20:00 38% 55 km
Sa, 30.05. 14:00 34% >70 km
Sa, 30.05. 8:00 62% 50 km
Sa, 30.05. 2:00 52% >70 km
Fr, 29.05. 20:00 29% >70 km
Ortszeit Relative Feuchte Sichtweite
So, 31.05. 16:00 40% 65 km
So, 31.05. 15:50 40% -
So, 31.05. 15:40 41% -
So, 31.05. 15:30 40% >70 km
So, 31.05. 15:20 40% -
So, 31.05. 15:10 41% -
So, 31.05. 15:00 41% 55 km
So, 31.05. 14:30 41% 40 km
So, 31.05. 14:00 42% >70 km
So, 31.05. 13:30 42% >70 km
So, 31.05. 13:00 42% >70 km
Ortszeit Niederschlagsmenge Niederschlagsart
So, 31.05. 14:00 0.0 l/m2 in 6 Std. -
So, 31.05. 8:00 0.0 l/m2 in 12 Std. -
So, 31.05. 2:00 0.0 l/m2 in 6 Std. -
Sa, 30.05. 20:00 0.1 l/m2 in 12 Std. Niederschlag
Sa, 30.05. 14:00 0.0 l/m2 in 6 Std. -
Sa, 30.05. 8:00 0.0 l/m2 in 12 Std. -
Sa, 30.05. 2:00 0.0 l/m2 in 6 Std. -
Fr, 29.05. 20:00 0.0 l/m2 in 12 Std. -
Ortszeit Niederschlagsmenge Niederschlagsart
So, 31.05. 16:00 0.0 l/m2 in 1 Std. -
So, 31.05. 15:50 keine Meldung -
So, 31.05. 15:40 keine Meldung -
So, 31.05. 15:30 0.0 l/m2 in 1 Std. -
So, 31.05. 15:20 keine Meldung -
So, 31.05. 15:10 keine Meldung -
So, 31.05. 15:00 0.0 l/m2 in 1 Std. -
So, 31.05. 14:30 0.0 l/m2 in 1 Std. -
So, 31.05. 14:00 0.0 l/m2 in 1 Std. -
So, 31.05. 13:30 0.0 l/m2 in 1 Std. -
So, 31.05. 13:00 0.0 l/m2 in 1 Std. -
Ortszeit Stärke Spitze Richtung
km/h Bft. km/h Grad Sektor
So, 31.05. 14:00 18 3 40 90° O
So, 31.05. 8:00 11 2 20 50° NO
So, 31.05. 2:00 9 2 31 50° NO
Sa, 30.05. 20:00 18 3 40 110° O
Sa, 30.05. 14:00 13 3 37 90° O
Sa, 30.05. 8:00 9 2 19 90° O
Sa, 30.05. 2:00 7 2 25 80° O
Fr, 29.05. 20:00 11 2 33 80° O
Ortszeit Stärke Spitze Richtung
km/h Bft. km/h Grad Sektor
So, 31.05. 16:00 18 3 36 90° O
So, 31.05. 15:50 18 3 - 90° O
So, 31.05. 15:40 20 4 - 70° O
So, 31.05. 15:30 18 3 36 70° O
So, 31.05. 15:20 18 3 - 70° O
So, 31.05. 15:10 17 3 - 70° O
So, 31.05. 15:00 22 4 41 120° SO
So, 31.05. 14:30 14 3 40 40° NO
So, 31.05. 14:00 18 3 40 90° O
So, 31.05. 13:30 19 3 37 40° NO
So, 31.05. 13:00 18 3 40 80° O
Ortszeit Untergrenze Bedeckung Gattung
total tief tief mittel hoch
So, 31.05. 14:00 10500 m 2/8 0/8 - - -
So, 31.05. 8:00 7200 m 1/8 0/8 - - -
So, 31.05. 2:00 - 0/8 0/8 - - -
Sa, 30.05. 20:00 2100 m 2/8 2/8 - - -
Sa, 30.05. 14:00 1800 m 2/8 2/8 - - -
Sa, 30.05. 8:00 - 0/8 0/8 - - -
Sa, 30.05. 2:00 - 0/8 0/8 - - -
Fr, 29.05. 20:00 - 0/8 0/8 - - -
Ortszeit Bedeckungsgrad in Achtel und Wolkenuntergrenze
So, 31.05. 16:00 2(7800m)
So, 31.05. 15:50 2(7800m)
So, 31.05. 15:40 1(6900m) 3(7800m)
So, 31.05. 15:30 7(6900m)
So, 31.05. 15:20 7(6900m)
So, 31.05. 15:10 1(1500m) 7(6900m)
So, 31.05. 15:00 1(1500m) 5(6900m)
So, 31.05. 14:30 3(10500m) 2(10500m)
So, 31.05. 14:00 2(10500m)
So, 31.05. 13:30 keine Wolken
So, 31.05. 13:00 keine Wolken
Ortszeit Luftdruck NN (hPa) Tendenz (hPa in 3 Std.)
So, 31.05. 14:00 1023 - 0,7
So, 31.05. 8:00 1024 + 0,6
So, 31.05. 2:00 1023 + 0,4
Sa, 30.05. 20:00 1022 - 0,3
Sa, 30.05. 14:00 1024 - 1,1
Sa, 30.05. 8:00 1025 + 0,3
Sa, 30.05. 2:00 1025 + 0,5
Fr, 29.05. 20:00 1024 - 1,1
Ortszeit Luftdruck NN (hPa) Tendenz (hPa in 3 Std.)
So, 31.05. 16:00 1022 - 0,8
So, 31.05. 15:50 1022 keine Meldung
So, 31.05. 15:40 1022 keine Meldung
So, 31.05. 15:30 1022 - 0,9
So, 31.05. 15:20 1022 keine Meldung
So, 31.05. 15:10 1022 keine Meldung
So, 31.05. 15:00 1022 - 0,9
So, 31.05. 14:30 1023 - 0,8
So, 31.05. 14:00 1023 - 0,7
So, 31.05. 13:30 1023 - 0,6
So, 31.05. 13:00 1023 - 0,3
Ortszeit Schneehöhe (cm)
So, 31.05. 14:00 -
So, 31.05. 8:00 -
So, 31.05. 2:00 -
Sa, 30.05. 20:00 -
Sa, 30.05. 14:00 -
Sa, 30.05. 8:00 -
Sa, 30.05. 2:00 -
Fr, 29.05. 20:00 -
Ortszeit Schneehöhe (cm)
So, 31.05. 16:00 -
So, 31.05. 15:50 -
So, 31.05. 15:40 -
So, 31.05. 15:30 -
So, 31.05. 15:20 -
So, 31.05. 15:10 -
So, 31.05. 15:00 -
So, 31.05. 14:30 -
So, 31.05. 14:00 -
So, 31.05. 13:30 -
So, 31.05. 13:00 -
Link zu dieser Seite / Seite empfehlen

Das Wetter in ...